Time;durP1;ratioP1;P1;durP2;ratioP2;P2;SDS_P1;SDS_P2;PMS_P1;PMS_P2;Temp;Humidity;BMP_temperature;BMP_pressure;BME280_temperature;BME280_humidity;BME280_pressure;Samples;Min_cycle;Max_cycle;Signal;HPM_P1;HPM_P2
2021/11/30 00:00:12;;;;;;;194.82;85.68;;;2.20;99.90;;;;;;4933193;29;20031;-85
2021/11/30 00:02:37;;;;;;;179.77;83.55;;;2.20;99.90;;;;;;4933307;29;20071;-85
2021/11/30 00:05:04;;;;;;;172.27;81.32;;;2.20;99.90;;;;;;4931794;29;20035;-85
2021/11/30 00:07:31;;;;;;;154.27;64.25;;;2.20;99.90;;;;;;4933310;29;20083;-86
2021/11/30 00:12:25;;;;;;;116.93;50.42;;;2.20;99.90;;;;;;4933107;29;20115;-85
2021/11/30 00:14:53;;;;;;;103.53;44.10;;;2.20;99.90;;;;;;4932046;29;20039;-86
2021/11/30 00:17:19;;;;;;;92.43;39.13;;;2.30;99.90;;;;;;4931955;29;20020;-85
2021/11/30 00:19:47;;;;;;;87.05;39.38;;;2.20;99.90;;;;;;4932981;29;20036;-85
2021/11/30 00:22:16;;;;;;;80.82;35.55;;;2.20;99.90;;;;;;4933241;29;20075;-85
2021/11/30 00:24:42;;;;;;;79.13;36.63;;;2.20;99.90;;;;;;4931568;29;20031;-85
2021/11/30 00:27:08;;;;;;;72.22;33.72;;;2.20;99.90;;;;;;4932984;29;20103;-86
2021/11/30 00:29:35;;;;;;;69.20;32.33;;;2.20;99.90;;;;;;4932987;29;20118;-85
2021/11/30 00:32:01;;;;;;;50.90;27.58;;;2.20;99.90;;;;;;4933200;29;20103;-86
2021/11/30 00:34:26;;;;;;;46.00;27.20;;;2.20;99.90;;;;;;4931774;29;20131;-85
2021/11/30 00:36:53;;;;;;;38.40;24.00;;;2.20;99.90;;;;;;4933066;29;20024;-86
2021/11/30 00:39:19;;;;;;;38.47;23.55;;;2.20;99.90;;;;;;4932604;29;20035;-85
2021/11/30 00:41:58;;;;;;;39.85;22.70;;;2.20;99.90;;;;;;4932766;29;20039;-85
2021/11/30 00:44:27;;;;;;;38.53;21.48;;;2.30;99.90;;;;;;4935111;29;20039;-85
2021/11/30 00:46:55;;;;;;;36.47;19.65;;;2.20;99.90;;;;;;4936469;29;20015;-85
2021/11/30 00:49:22;;;;;;;36.60;20.20;;;2.30;99.90;;;;;;4936474;29;20027;-85
2021/11/30 00:51:49;;;;;;;28.15;17.98;;;2.30;99.90;;;;;;4934952;29;20031;-85
2021/11/30 00:54:17;;;;;;;32.10;17.35;;;2.30;99.90;;;;;;4936238;29;20028;-86
2021/11/30 00:56:46;;;;;;;28.23;16.20;;;2.30;99.90;;;;;;4934929;29;20036;-85
2021/11/30 00:59:12;;;;;;;27.63;15.20;;;2.30;99.90;;;;;;4936141;29;20028;-85
2021/11/30 01:01:39;;;;;;;26.45;14.88;;;2.30;99.90;;;;;;4935956;29;20063;-85
2021/11/30 01:04:06;;;;;;;27.90;16.30;;;2.30;99.90;;;;;;4936253;29;20027;-85
2021/11/30 01:06:34;;;;;;;26.15;14.73;;;2.30;99.90;;;;;;4936253;29;20032;-85
2021/11/30 01:09:00;;;;;;;27.73;16.30;;;2.30;99.90;;;;;;4935940;29;20028;-85
2021/11/30 01:11:26;;;;;;;27.40;16.08;;;2.20;99.90;;;;;;4935984;29;20028;-85
2021/11/30 01:13:52;;;;;;;28.38;15.52;;;2.20;99.90;;;;;;4934943;29;20020;-85
2021/11/30 01:16:18;;;;;;;34.60;15.27;;;2.20;99.90;;;;;;4935847;29;20393;-85
2021/11/30 01:18:43;;;;;;;25.02;15.07;;;2.20;99.90;;;;;;4934558;29;20288;-85
2021/11/30 01:21:09;;;;;;;27.08;16.08;;;2.20;99.90;;;;;;4935740;29;20451;-86
2021/11/30 01:23:35;;;;;;;25.65;14.93;;;2.10;99.90;;;;;;4935947;29;20024;-86
2021/11/30 01:26:01;;;;;;;28.65;15.32;;;2.10;99.90;;;;;;4935647;29;20075;-86
2021/11/30 01:28:27;;;;;;;26.95;14.88;;;2.10;99.90;;;;;;4935829;29;20028;-85
2021/11/30 01:30:54;;;;;;;28.52;15.68;;;2.10;99.90;;;;;;4935710;29;20389;-86
2021/11/30 01:33:20;;;;;;;28.25;14.68;;;2.10;99.90;;;;;;4935645;29;20024;-85
2021/11/30 01:35:46;;;;;;;23.75;14.50;;;2.10;99.90;;;;;;4935686;29;20028;-86
2021/11/30 01:38:14;;;;;;;23.90;13.73;;;2.10;99.90;;;;;;4934382;29;20019;-86
2021/11/30 01:40:41;;;;;;;24.95;13.63;;;2.10;99.90;;;;;;4935459;29;20028;-85
2021/11/30 01:43:09;;;;;;;23.33;13.43;;;2.10;99.90;;;;;;4935592;29;20039;-86
2021/11/30 01:45:55;;;;;;;22.98;13.38;;;2.20;99.90;;;;;;4935684;29;20050;-85
2021/11/30 01:50:53;;;;;;;22.30;13.93;;;2.20;99.90;;;;;;4935475;29;20024;-86
2021/11/30 01:53:18;;;;;;;22.50;13.85;;;2.20;99.90;;;;;;4934964;28;20106;-85
2021/11/30 01:55:45;;;;;;;24.45;13.95;;;2.20;99.90;;;;;;4935248;29;20084;-86
2021/11/30 01:58:12;;;;;;;24.75;13.82;;;2.20;99.90;;;;;;4935310;29;20405;-86
2021/11/30 02:00:39;;;;;;;26.42;13.90;;;2.20;99.90;;;;;;4935283;29;20450;-85
2021/11/30 02:03:06;;;;;;;24.95;14.23;;;2.20;99.90;;;;;;4934028;29;20047;-85
2021/11/30 02:05:34;;;;;;;28.30;14.82;;;2.20;99.90;;;;;;4934158;29;20287;-85
2021/11/30 02:08:00;;;;;;;32.67;15.52;;;2.10;99.90;;;;;;4935400;29;20039;-85
2021/11/30 02:10:26;;;;;;;26.23;15.13;;;2.10;99.90;;;;;;4933853;29;20477;-86
2021/11/30 02:12:53;;;;;;;24.20;14.85;;;2.10;99.90;;;;;;4934743;29;20019;-85
2021/11/30 02:15:20;;;;;;;26.27;15.43;;;2.00;99.90;;;;;;4935059;29;20438;-85
2021/11/30 02:17:46;;;;;;;26.33;15.00;;;2.00;99.90;;;;;;4935232;29;20019;-85
2021/11/30 02:20:12;;;;;;;29.98;15.52;;;2.00;99.90;;;;;;4934875;29;20039;-86
2021/11/30 02:22:39;;;;;;;28.17;15.60;;;2.00;99.90;;;;;;4933542;29;20397;-85
2021/11/30 02:25:05;;;;;;;28.60;15.57;;;1.90;99.90;;;;;;4934804;29;20043;-85
2021/11/30 02:27:31;;;;;;;27.30;14.27;;;1.90;99.90;;;;;;4934831;29;20019;-85
2021/11/30 02:29:57;;;;;;;27.55;14.68;;;1.90;99.90;;;;;;4934838;29;20086;-85
2021/11/30 02:32:23;;;;;;;24.48;14.52;;;1.90;99.90;;;;;;4934780;29;20031;-85
2021/11/30 02:34:49;;;;;;;23.75;14.25;;;1.90;99.90;;;;;;4935434;29;20024;-85
2021/11/30 02:37:22;;;;;;;27.15;15.32;;;1.90;99.90;;;;;;4938451;29;20475;-85
2021/11/30 02:39:47;;;;;;;24.65;14.65;;;1.80;99.90;;;;;;4940429;29;20060;-86
2021/11/30 02:42:13;;;;;;;27.70;14.77;;;1.80;99.90;;;;;;4939589;29;20035;-86
2021/11/30 02:44:39;;;;;;;26.02;14.32;;;1.80;99.90;;;;;;4940351;29;20023;-86
2021/11/30 02:47:08;;;;;;;22.88;15.25;;;1.80;99.90;;;;;;4940048;29;20028;-85
2021/11/30 02:49:36;;;;;;;27.73;15.60;;;1.80;99.90;;;;;;4937198;29;20059;-85
2021/11/30 02:52:09;;;;;;;24.08;14.30;;;1.80;99.90;;;;;;4940246;29;20039;-85
2021/11/30 02:54:36;;;;;;;25.67;14.75;;;1.80;99.90;;;;;;4940077;29;20035;-85
2021/11/30 02:57:05;;;;;;;26.02;15.43;;;1.80;99.90;;;;;;4943153;28;20043;-86
2021/11/30 02:59:34;;;;;;;24.27;14.02;;;1.80;99.90;;;;;;4956720;29;20024;-85
2021/11/30 03:02:09;;;;;;;23.92;15.18;;;1.70;99.90;;;;;;4955943;29;20020;-85
2021/11/30 03:04:35;;;;;;;25.85;14.52;;;1.70;99.90;;;;;;4956746;29;20044;-85
2021/11/30 03:07:00;;;;;;;24.73;14.25;;;1.80;99.90;;;;;;4956971;29;20047;-86
2021/11/30 03:09:26;;;;;;;23.25;13.35;;;1.80;99.90;;;;;;4951995;29;20082;-85
2021/11/30 03:11:53;;;;;;;24.55;13.82;;;1.80;99.90;;;;;;4955722;29;20032;-85
2021/11/30 03:14:19;;;;;;;24.27;13.88;;;1.70;99.90;;;;;;4956834;29;20047;-85
2021/11/30 03:16:46;;;;;;;25.48;15.75;;;1.70;99.90;;;;;;4956592;29;20039;-86
2021/11/30 03:19:15;;;;;;;29.30;15.63;;;1.70;99.90;;;;;;4956492;29;20177;-85
2021/11/30 03:21:41;;;;;;;25.83;15.27;;;1.70;99.90;;;;;;4957069;29;20028;-86
2021/11/30 03:24:07;;;;;;;29.13;16.13;;;1.70;99.90;;;;;;4956417;29;20028;-85
2021/11/30 03:26:33;;;;;;;29.80;15.95;;;1.70;99.90;;;;;;4956678;28;20099;-86
2021/11/30 03:29:00;;;;;;;29.63;16.45;;;1.70;99.90;;;;;;4955149;29;20023;-85
2021/11/30 03:34:13;;;;;;;29.67;17.23;;;1.70;99.90;;;;;;4956338;29;20095;-85
2021/11/30 03:36:40;;;;;;;24.27;15.25;;;1.60;99.90;;;;;;4956526;29;20031;-85
2021/11/30 03:39:10;;;;;;;24.08;14.93;;;1.60;99.90;;;;;;4956307;29;20417;-85
2021/11/30 03:41:36;;;;;;;24.63;15.52;;;1.60;99.90;;;;;;4955717;29;20034;-85
2021/11/30 03:44:04;;;;;;;26.27;15.18;;;1.60;99.90;;;;;;4943558;29;20024;-85
2021/11/30 03:46:31;;;;;;;23.20;14.85;;;1.60;99.90;;;;;;4933723;29;20111;-85
2021/11/30 03:48:58;;;;;;;23.25;14.45;;;1.60;99.90;;;;;;4933989;29;20127;-85
2021/11/30 03:51:24;;;;;;;23.58;14.70;;;1.60;99.90;;;;;;4933929;29;20362;-85
2021/11/30 03:53:50;;;;;;;22.73;14.70;;;1.70;99.90;;;;;;4933845;29;20020;-85
2021/11/30 03:56:16;;;;;;;23.80;14.10;;;1.60;99.90;;;;;;4933896;29;20505;-85
2021/11/30 03:58:41;;;;;;;21.00;14.20;;;1.70;99.90;;;;;;4933498;29;20160;-85
2021/11/30 04:01:07;;;;;;;20.20;13.40;;;1.70;99.90;;;;;;4933444;29;20051;-84
2021/11/30 04:03:34;;;;;;;21.10;13.55;;;1.70;99.90;;;;;;4933666;29;20023;-85
2021/11/30 04:06:02;;;;;;;19.02;13.27;;;1.70;99.90;;;;;;4933260;29;20051;-85
2021/11/30 04:08:28;;;;;;;18.63;13.07;;;1.70;99.90;;;;;;4916524;29;20035;-84
2021/11/30 04:10:54;;;;;;;20.20;13.30;;;1.70;99.90;;;;;;4933460;29;20564;-85
2021/11/30 04:13:20;;;;;;;20.77;15.02;;;1.70;99.90;;;;;;4933327;29;20042;-85
2021/11/30 04:15:46;;;;;;;20.48;13.75;;;1.70;99.90;;;;;;4933365;29;20038;-85
2021/11/30 04:18:12;;;;;;;20.10;12.52;;;1.80;99.90;;;;;;4937409;29;20084;-85
2021/11/30 04:20:37;;;;;;;19.13;12.95;;;1.80;99.90;;;;;;4937311;29;20527;-85
2021/11/30 04:23:04;;;;;;;23.63;13.65;;;1.80;99.90;;;;;;4937180;29;20444;-85
2021/11/30 04:25:30;;;;;;;19.10;13.15;;;1.80;99.90;;;;;;4936962;29;20027;-85
2021/11/30 04:27:56;;;;;;;26.13;15.60;;;1.80;99.90;;;;;;4937079;29;20034;-84
2021/11/30 04:30:22;;;;;;;23.48;14.77;;;1.90;99.90;;;;;;4936806;29;20075;-85
2021/11/30 04:32:48;;;;;;;27.20;17.27;;;1.90;99.90;;;;;;4935929;29;20544;-84
2021/11/30 04:35:14;;;;;;;34.15;20.35;;;2.00;99.90;;;;;;4937077;29;20296;-84
2021/11/30 04:37:40;;;;;;;33.45;22.23;;;2.00;99.90;;;;;;4937318;29;20460;-84
2021/11/30 04:40:07;;;;;;;35.05;23.08;;;2.10;99.90;;;;;;4936804;29;20032;-85
2021/11/30 04:42:34;;;;;;;33.25;21.83;;;2.10;99.90;;;;;;4936924;29;20016;-84
2021/11/30 04:45:12;;;;;;;34.75;22.58;;;2.20;99.90;;;;;;4936999;29;20417;-85
2021/11/30 04:47:40;;;;;;;35.55;22.13;;;2.20;99.90;;;;;;4936667;29;20038;-85
2021/11/30 04:50:19;;;;;;;33.17;21.25;;;2.20;99.90;;;;;;4936724;29;20028;-85
2021/11/30 04:52:46;;;;;;;30.80;20.52;;;2.20;99.90;;;;;;4935285;29;20036;-85
2021/11/30 04:55:12;;;;;;;33.50;20.60;;;2.20;99.90;;;;;;4935293;29;20027;-85
2021/11/30 04:57:38;;;;;;;32.72;20.40;;;2.20;99.90;;;;;;4936375;29;20044;-85
2021/11/30 05:00:05;;;;;;;25.05;17.73;;;2.20;99.90;;;;;;4935040;29;20090;-85
2021/11/30 05:02:31;;;;;;;26.90;16.90;;;2.20;99.90;;;;;;4935006;29;20399;-85
2021/11/30 05:04:58;;;;;;;24.15;15.73;;;2.10;99.90;;;;;;4936263;29;20019;-85
2021/11/30 05:07:23;;;;;;;23.00;15.77;;;2.10;99.90;;;;;;4936288;29;20086;-85
2021/11/30 05:09:49;;;;;;;21.77;14.75;;;2.10;99.90;;;;;;4936019;29;20102;-85
2021/11/30 05:12:15;;;;;;;26.00;15.27;;;2.10;99.90;;;;;;4935648;29;20034;-85
2021/11/30 05:14:40;;;;;;;23.23;15.10;;;2.10;99.90;;;;;;4935720;29;20034;-85
2021/11/30 05:17:06;;;;;;;23.27;14.15;;;2.20;99.90;;;;;;4936250;29;20031;-85
2021/11/30 05:19:32;;;;;;;23.40;14.73;;;2.20;99.90;;;;;;4936041;29;20035;-85
2021/11/30 05:21:58;;;;;;;22.13;14.55;;;2.20;99.90;;;;;;4935975;29;20066;-85
2021/11/30 05:24:24;;;;;;;23.75;16.13;;;2.20;99.90;;;;;;4935856;29;20034;-85
2021/11/30 05:26:53;;;;;;;24.75;15.90;;;2.20;99.90;;;;;;4936028;29;20024;-85
2021/11/30 05:29:19;;;;;;;24.92;15.77;;;2.20;99.90;;;;;;4935369;28;20023;-85
2021/11/30 05:31:45;;;;;;;28.55;15.52;;;2.20;99.90;;;;;;4936151;29;20449;-85
2021/11/30 05:34:11;;;;;;;23.45;14.77;;;2.20;99.90;;;;;;4936102;29;20038;-85
2021/11/30 05:36:37;;;;;;;20.55;13.98;;;2.20;99.90;;;;;;4935962;29;20023;-85
2021/11/30 05:39:04;;;;;;;22.75;14.57;;;2.30;99.90;;;;;;4934423;29;20107;-85
2021/11/30 05:41:29;;;;;;;23.73;14.50;;;2.20;99.90;;;;;;4935607;29;20036;-85
2021/11/30 05:43:55;;;;;;;24.48;13.65;;;2.20;99.90;;;;;;4935696;29;20516;-85
2021/11/30 05:46:21;;;;;;;26.63;14.40;;;2.20;99.90;;;;;;4935953;29;20024;-85
2021/11/30 05:48:47;;;;;;;20.67;14.65;;;2.20;99.90;;;;;;4935470;29;20024;-85
2021/11/30 05:51:13;;;;;;;22.05;14.75;;;2.20;99.90;;;;;;4935730;29;20524;-85
2021/11/30 05:53:38;;;;;;;24.55;14.32;;;2.20;99.90;;;;;;4935496;29;20035;-85
2021/11/30 05:56:08;;;;;;;25.92;15.30;;;2.20;99.90;;;;;;4935299;29;20429;-85
2021/11/30 05:58:37;;;;;;;22.70;16.20;;;2.20;99.90;;;;;;4935324;29;20349;-85
2021/11/30 06:06:17;;;;;;;27.00;15.05;;;2.10;99.90;;;;;;4935635;29;20060;-85
2021/11/30 06:08:43;;;;;;;23.27;14.50;;;2.10;99.90;;;;;;4935315;29;20225;-85
2021/11/30 06:11:09;;;;;;;29.33;14.82;;;2.20;99.90;;;;;;4933992;29;20066;-85
2021/11/30 06:13:35;;;;;;;23.73;14.80;;;2.20;99.90;;;;;;4935134;29;20027;-85
2021/11/30 06:16:01;;;;;;;26.05;15.43;;;2.20;99.90;;;;;;4935236;29;20032;-85
2021/11/30 06:18:27;;;;;;;24.30;15.52;;;2.20;99.90;;;;;;4934883;29;20019;-85
2021/11/30 06:20:53;;;;;;;23.88;16.38;;;2.20;99.90;;;;;;4934892;29;20465;-84
2021/11/30 06:23:19;;;;;;;30.10;17.48;;;2.30;99.90;;;;;;4935040;29;20099;-85
2021/11/30 06:25:45;;;;;;;27.02;16.17;;;2.20;99.90;;;;;;4934862;29;20163;-85
2021/11/30 06:28:10;;;;;;;23.92;16.00;;;2.20;99.90;;;;;;4935064;29;20028;-85
2021/11/30 06:30:36;;;;;;;27.33;15.88;;;2.20;99.90;;;;;;4934860;29;20114;-85
2021/11/30 06:33:02;;;;;;;22.38;14.43;;;2.20;99.90;;;;;;4935165;29;20016;-85
2021/11/30 06:35:28;;;;;;;23.30;16.25;;;2.30;99.90;;;;;;4934510;29;20036;-85
2021/11/30 06:37:53;;;;;;;26.67;16.35;;;2.20;99.90;;;;;;4934408;29;20588;-85
2021/11/30 06:40:20;;;;;;;25.38;17.52;;;2.20;99.90;;;;;;4933752;29;20036;-85
2021/11/30 06:42:45;;;;;;;28.85;16.88;;;2.20;99.90;;;;;;4933460;29;20063;-85
2021/11/30 06:45:12;;;;;;;26.13;17.23;;;2.30;99.90;;;;;;4934698;29;20059;-85
2021/11/30 06:47:39;;;;;;;29.42;17.55;;;2.20;99.90;;;;;;4934480;29;20016;-85
2021/11/30 06:50:06;;;;;;;27.30;17.75;;;2.30;99.90;;;;;;4934593;29;20042;-85
2021/11/30 06:52:32;;;;;;;44.03;22.92;;;2.30;99.90;;;;;;4934178;29;20024;-85
2021/11/30 06:54:57;;;;;;;28.90;18.02;;;2.30;99.90;;;;;;4932966;29;20123;-85
2021/11/30 06:57:23;;;;;;;29.48;17.38;;;2.30;99.90;;;;;;4934087;29;20048;-85
2021/11/30 06:59:50;;;;;;;25.10;16.40;;;2.30;99.90;;;;;;4934314;29;20107;-85
2021/11/30 07:02:16;;;;;;;27.95;16.75;;;2.30;99.90;;;;;;4934229;29;20087;-85
2021/11/30 07:04:47;;;;;;;32.95;18.85;;;2.30;99.90;;;;;;4934484;29;20023;-85
2021/11/30 07:15:09;;;;;;;34.50;19.83;;;2.30;99.90;;;;;;4934215;29;20028;-85
2021/11/30 07:17:36;;;;;;;31.88;20.15;;;2.30;99.90;;;;;;4934142;29;20028;-85
2021/11/30 07:20:04;;;;;;;31.17;19.75;;;2.40;99.90;;;;;;4932550;29;20031;-85
2021/11/30 07:22:31;;;;;;;29.73;18.73;;;2.40;99.90;;;;;;4933766;29;20024;-85
2021/11/30 07:24:57;;;;;;;30.90;19.08;;;2.40;99.90;;;;;;4933952;29;20027;-87
2021/11/30 07:27:24;;;;;;;31.67;20.10;;;2.40;99.90;;;;;;4934091;29;20024;-88
2021/11/30 07:29:50;;;;;;;33.63;20.58;;;2.40;99.90;;;;;;4933806;29;20043;-88
2021/11/30 07:32:16;;;;;;;33.05;19.08;;;2.40;99.90;;;;;;4934229;29;20124;-88
2021/11/30 07:34:42;;;;;;;29.17;18.23;;;2.40;99.90;;;;;;4933873;29;20034;-88
2021/11/30 07:37:08;;;;;;;33.53;19.40;;;2.50;99.90;;;;;;4934176;29;20066;-89
2021/11/30 07:39:35;;;;;;;28.35;17.85;;;2.50;99.90;;;;;;4935055;29;20059;-88
2021/11/30 07:42:26;;;;;;;26.38;17.45;;;2.60;99.90;;;;;;4949295;29;20047;-88
2021/11/30 07:44:55;;;;;;;26.73;16.17;;;2.60;99.90;;;;;;4957885;29;20024;-87
2021/11/30 07:47:22;;;;;;;30.38;18.27;;;2.60;99.90;;;;;;4957706;28;20046;-88
2021/11/30 07:49:48;;;;;;;32.53;17.90;;;2.60;99.90;;;;;;4955826;29;20051;-88
2021/11/30 07:52:14;;;;;;;27.85;18.05;;;2.60;99.90;;;;;;4933654;29;20035;-88
2021/11/30 07:54:40;;;;;;;28.83;18.42;;;2.60;99.90;;;;;;4933853;29;20354;-88
2021/11/30 07:57:08;;;;;;;33.15;19.00;;;2.60;99.90;;;;;;4933898;29;20311;-88
2021/11/30 07:59:36;;;;;;;36.00;19.70;;;2.70;99.90;;;;;;4933762;29;20043;-88
2021/11/30 08:02:02;;;;;;;29.67;18.92;;;2.70;99.90;;;;;;4932553;29;20036;-88
2021/11/30 08:04:28;;;;;;;30.58;19.90;;;2.80;99.90;;;;;;4933758;29;20039;-88
2021/11/30 08:06:53;;;;;;;31.85;19.50;;;2.90;99.90;;;;;;4934163;29;20087;-89
2021/11/30 08:09:19;;;;;;;31.13;19.35;;;3.00;99.90;;;;;;4933760;29;20373;-88
2021/11/30 08:11:45;;;;;;;27.63;17.75;;;3.10;99.90;;;;;;4933451;29;20146;-89
2021/11/30 08:14:13;;;;;;;30.70;17.75;;;3.20;99.90;;;;;;4933439;29;20206;-89
2021/11/30 08:16:40;;;;;;;30.30;17.85;;;3.40;99.90;;;;;;4933642;29;20039;-88
2021/11/30 08:19:06;;;;;;;27.10;17.38;;;3.40;99.90;;;;;;4933441;29;20457;-89
2021/11/30 08:21:32;;;;;;;32.38;17.85;;;3.40;99.90;;;;;;4933241;29;20039;-89
2021/11/30 08:23:57;;;;;;;26.05;17.75;;;3.40;99.90;;;;;;4933360;29;20414;-88
2021/11/30 08:26:23;;;;;;;25.85;17.63;;;3.40;99.90;;;;;;4932213;29;20028;-88
2021/11/30 08:28:49;;;;;;;30.13;18.40;;;3.50;99.90;;;;;;4933531;29;20028;-89
2021/11/30 08:31:16;;;;;;;33.95;19.88;;;3.50;99.90;;;;;;4933394;29;20040;-89
2021/11/30 08:33:42;;;;;;;32.63;20.13;;;3.50;99.90;;;;;;4932351;29;20035;-88
2021/11/30 08:36:07;;;;;;;40.38;20.88;;;3.40;99.90;;;;;;4932295;29;20028;-88
2021/11/30 08:38:33;;;;;;;33.92;20.70;;;3.40;99.90;;;;;;4932713;29;20055;-89
2021/11/30 08:40:59;;;;;;;35.42;20.95;;;3.50;99.90;;;;;;4932155;29;20043;-89
2021/11/30 08:43:25;;;;;;;36.08;22.33;;;3.60;99.90;;;;;;4932390;29;20028;-89
2021/11/30 08:45:54;;;;;;;37.25;22.67;;;3.70;99.90;;;;;;4932005;29;20024;-89
2021/11/30 08:48:20;;;;;;;35.88;21.55;;;3.70;99.90;;;;;;4932090;29;20440;-89
2021/11/30 08:50:46;;;;;;;39.13;22.05;;;3.70;99.90;;;;;;4932155;29;20497;-89
2021/11/30 08:53:12;;;;;;;44.78;22.38;;;3.80;99.90;;;;;;4932073;29;20063;-88
2021/11/30 08:55:37;;;;;;;38.05;22.90;;;3.80;99.90;;;;;;4931901;29;20070;-88
2021/11/30 08:58:05;;;;;;;37.42;22.15;;;4.00;99.90;;;;;;4932104;29;20054;-88
2021/11/30 09:00:31;;;;;;;37.67;22.58;;;3.90;99.90;;;;;;4931928;29;20036;-89
2021/11/30 09:02:57;;;;;;;39.70;22.80;;;4.10;99.90;;;;;;4932016;29;20404;-88
2021/11/30 09:05:23;;;;;;;35.15;21.00;;;4.10;99.90;;;;;;4936546;29;20023;-88
2021/11/30 09:07:50;;;;;;;35.05;23.25;;;4.20;99.90;;;;;;4938646;29;20437;-88
2021/11/30 09:10:18;;;;;;;39.55;23.95;;;4.20;99.90;;;;;;4940887;29;20499;-89
2021/11/30 09:12:44;;;;;;;36.70;22.35;;;4.30;99.90;;;;;;4935338;29;20028;-89
2021/11/30 09:15:10;;;;;;;35.90;21.55;;;4.40;99.90;;;;;;4935276;29;20416;-89
2021/11/30 09:17:38;;;;;;;32.97;21.90;;;4.50;99.90;;;;;;4935317;29;20031;-88
2021/11/30 09:20:07;;;;;;;36.42;21.80;;;4.50;99.90;;;;;;4934951;29;20045;-89
2021/11/30 09:22:33;;;;;;;38.35;22.40;;;4.60;99.90;;;;;;4934948;29;20032;-88
2021/11/30 09:25:00;;;;;;;36.70;22.30;;;4.60;99.90;;;;;;4935981;29;20038;-89
2021/11/30 09:27:26;;;;;;;33.95;21.73;;;4.60;99.90;;;;;;4934162;29;20131;-88
2021/11/30 09:29:54;;;;;;;41.28;23.73;;;4.60;99.90;;;;;;4933981;29;20023;-89
2021/11/30 09:32:20;;;;;;;36.90;22.15;;;4.60;99.90;;;;;;4935323;29;20020;-89
2021/11/30 09:34:46;;;;;;;36.50;21.80;;;4.70;99.90;;;;;;4935511;29;20107;-88
2021/11/30 09:37:12;;;;;;;33.75;21.00;;;4.70;99.90;;;;;;4935312;29;20054;-89
2021/11/30 09:39:38;;;;;;;33.42;20.02;;;4.80;99.90;;;;;;4935052;29;20024;-89
2021/11/30 09:42:04;;;;;;;29.25;17.85;;;4.90;99.90;;;;;;4935876;29;20063;-89
2021/11/30 09:44:33;;;;;;;29.83;17.83;;;5.00;99.90;;;;;;4935890;29;20019;-89
2021/11/30 09:47:01;;;;;;;30.98;17.85;;;5.10;99.90;;;;;;4934550;29;20114;-89
2021/11/30 09:49:27;;;;;;;30.08;17.20;;;5.10;99.90;;;;;;4935711;29;20027;-89
2021/11/30 09:51:53;;;;;;;29.10;17.63;;;5.30;99.90;;;;;;4936139;29;20059;-89
2021/11/30 09:54:20;;;;;;;28.60;17.42;;;5.30;99.90;;;;;;4935495;29;20481;-89
2021/11/30 09:56:46;;;;;;;27.08;16.70;;;5.30;99.90;;;;;;4933968;29;20559;-89
2021/11/30 09:59:12;;;;;;;29.05;17.05;;;5.40;99.90;;;;;;4934320;29;20043;-89
2021/11/30 10:01:38;;;;;;;27.38;16.90;;;5.50;99.90;;;;;;4934388;29;20050;-89
2021/11/30 10:04:04;;;;;;;32.50;17.95;;;5.60;99.90;;;;;;4934383;29;20027;-89
2021/11/30 10:06:31;;;;;;;26.08;17.17;;;5.80;99.90;;;;;;4934270;29;20031;-89
2021/11/30 10:08:57;;;;;;;28.40;15.73;;;5.90;99.90;;;;;;4934232;29;20024;-89
2021/11/30 10:11:40;;;;;;;29.58;16.92;;;6.00;99.90;;;;;;4934091;29;20028;-89
2021/11/30 10:14:13;;;;;;;35.40;16.65;;;6.00;99.90;;;;;;4933915;29;20122;-89
2021/11/30 10:16:40;;;;;;;26.08;16.83;;;6.10;99.90;;;;;;4935539;29;20049;-88
2021/11/30 10:19:06;;;;;;;27.83;15.20;;;6.30;99.90;;;;;;4934023;29;20090;-89
2021/11/30 10:21:32;;;;;;;29.75;15.73;;;6.30;99.90;;;;;;4935323;29;20039;-89
2021/11/30 10:24:04;;;;;;;26.20;14.98;;;6.40;99.90;;;;;;4933775;29;20027;-89
2021/11/30 10:26:37;;;;;;;29.55;15.68;;;6.40;99.90;;;;;;4933948;29;20063;-89
2021/11/30 10:29:09;;;;;;;27.20;16.35;;;6.40;99.90;;;;;;4933911;29;20034;-89
2021/11/30 10:31:39;;;;;;;26.65;16.30;;;6.40;99.90;;;;;;4933851;29;20314;-89
2021/11/30 10:34:11;;;;;;;31.13;16.50;;;6.40;99.90;;;;;;4935237;29;20042;-89
2021/11/30 10:36:45;;;;;;;25.17;14.85;;;6.60;99.90;;;;;;4935081;29;20063;-89
2021/11/30 10:39:18;;;;;;;24.33;14.88;;;6.80;99.90;;;;;;4933831;29;20039;-89
2021/11/30 10:41:46;;;;;;;22.70;14.90;;;6.80;99.90;;;;;;4933721;29;20036;-89
2021/11/30 10:44:12;;;;;;;24.20;16.02;;;6.80;99.90;;;;;;4933864;29;20535;-89
2021/11/30 10:46:38;;;;;;;25.65;15.75;;;6.80;99.90;;;;;;4933670;29;20212;-89
2021/11/30 10:49:04;;;;;;;27.50;14.38;;;6.90;99.90;;;;;;4933563;29;20028;-89
2021/11/30 10:51:43;;;;;;;25.73;15.10;;;7.00;99.90;;;;;;4933542;29;20030;-90
2021/11/30 10:54:09;;;;;;;21.08;14.35;;;7.10;99.90;;;;;;4933453;29;20067;-89
2021/11/30 10:56:35;;;;;;;25.05;14.13;;;7.20;99.90;;;;;;4933380;29;20055;-89
2021/11/30 10:59:00;;;;;;;29.60;15.50;;;7.10;99.90;;;;;;4933352;29;20134;-89
2021/11/30 11:01:28;;;;;;;23.50;13.63;;;7.20;99.90;;;;;;4944055;29;20095;-89
2021/11/30 11:04:02;;;;;;;26.42;14.75;;;7.20;99.90;;;;;;4935465;29;20083;-89
2021/11/30 11:06:30;;;;;;;27.67;14.63;;;7.30;99.90;;;;;;4933419;29;20236;-89
2021/11/30 11:09:00;;;;;;;27.48;14.75;;;7.40;99.90;;;;;;4932958;29;20039;-89
2021/11/30 11:12:01;;;;;;;27.75;15.40;;;7.30;99.90;;;;;;4933368;29;20036;-89
2021/11/30 11:14:27;;;;;;;21.08;13.70;;;7.40;99.90;;;;;;4933014;29;20140;-89
2021/11/30 11:17:01;;;;;;;23.38;14.38;;;7.40;99.90;;;;;;4933232;29;20070;-89
2021/11/30 11:19:44;;;;;;;26.50;15.20;;;7.40;99.90;;;;;;4933124;29;20119;-88
2021/11/30 11:22:18;;;;;;;26.83;15.55;;;7.30;99.90;;;;;;4935956;29;20063;-89
2021/11/30 11:24:48;;;;;;;29.77;15.30;;;7.30;99.90;;;;;;4934242;29;20035;-89
2021/11/30 11:27:15;;;;;;;24.65;15.63;;;7.30;99.90;;;;;;4932683;29;20028;-89
2021/11/30 11:29:43;;;;;;;25.27;15.77;;;7.30;99.90;;;;;;4933563;29;20020;-89
2021/11/30 11:32:09;;;;;;;27.48;16.25;;;7.40;99.90;;;;;;4932801;29;20079;-89
2021/11/30 11:34:37;;;;;;;26.17;15.85;;;7.40;99.90;;;;;;4934185;29;20039;-90
2021/11/30 11:37:05;;;;;;;26.65;15.50;;;7.50;99.90;;;;;;4934527;29;20088;-90
2021/11/30 11:39:32;;;;;;;27.75;15.57;;;7.50;99.90;;;;;;4934041;29;20024;-90
2021/11/30 11:42:00;;;;;;;24.17;15.18;;;7.60;99.90;;;;;;4933997;29;20047;-89
2021/11/30 11:44:27;;;;;;;24.48;14.90;;;7.70;99.90;;;;;;4934044;29;20071;-89
2021/11/30 11:46:58;;;;;;;23.95;15.50;;;7.60;99.90;;;;;;4933454;29;20031;-89
2021/11/30 11:49:26;;;;;;;26.00;14.80;;;7.60;99.90;;;;;;4933671;29;20524;-90
2021/11/30 11:51:55;;;;;;;22.95;15.73;;;7.70;99.90;;;;;;4932814;29;20473;-90
2021/11/30 11:54:30;;;;;;;26.52;15.27;;;7.80;99.90;;;;;;4932708;29;20031;-90
2021/11/30 11:57:11;;;;;;;24.60;14.52;;;8.00;99.90;;;;;;4932470;29;20039;-90
2021/11/30 11:59:45;;;;;;;23.85;14.82;;;8.10;99.90;;;;;;4932418;29;20038;-90
2021/11/30 12:02:21;;;;;;;22.98;14.20;;;8.30;99.90;;;;;;4932606;29;20035;-89
2021/11/30 12:04:51;;;;;;;22.30;13.85;;;8.30;99.90;;;;;;4935671;29;20066;-90
2021/11/30 12:07:18;;;;;;;23.60;14.45;;;8.20;99.90;;;;;;4932397;29;20079;-90
2021/11/30 12:09:44;;;;;;;20.10;13.20;;;8.10;99.90;;;;;;4933804;29;20032;-90
2021/11/30 12:12:10;;;;;;;23.70;14.73;;;8.20;99.90;;;;;;4933942;29;20051;-90
2021/11/30 12:14:50;;;;;;;23.60;13.88;;;8.40;99.90;;;;;;4932830;29;20093;-90
2021/11/30 12:17:24;;;;;;;23.77;13.80;;;8.50;99.90;;;;;;4933759;29;20031;-90
2021/11/30 12:20:05;;;;;;;19.58;13.02;;;8.50;99.90;;;;;;4933615;29;20032;-90
2021/11/30 12:22:49;;;;;;;22.15;13.35;;;8.60;99.90;;;;;;4933660;29;20035;-90
2021/11/30 12:25:48;;;;;;;22.58;13.52;;;8.50;99.90;;;;;;4932140;29;20035;-89
2021/11/30 12:28:39;;;;;;;23.58;14.20;;;8.50;99.90;;;;;;4931009;29;20396;-90
2021/11/30 12:31:06;;;;;;;18.33;12.20;;;8.60;99.90;;;;;;4930885;29;20039;-90
2021/11/30 12:33:37;;;;;;;21.52;13.25;;;8.50;99.90;;;;;;4931109;29;20029;-89
2021/11/30 12:36:11;;;;;;;21.90;15.35;;;8.60;99.90;;;;;;4930618;29;20123;-90
2021/11/30 12:38:53;;;;;;;20.00;11.45;;;8.60;99.90;;;;;;4933510;29;20028;-89
2021/11/30 12:41:44;;;;;;;21.10;12.18;;;8.70;99.90;;;;;;4918337;29;20044;-90
2021/11/30 12:44:16;;;;;;;20.63;11.35;;;8.80;99.90;;;;;;4934471;29;20040;-90
2021/11/30 12:46:43;;;;;;;22.88;12.93;;;8.80;99.90;;;;;;4918527;29;20020;-90
2021/11/30 12:49:25;;;;;;;20.08;11.73;;;8.90;99.90;;;;;;4934379;29;20068;-90
2021/11/30 12:52:10;;;;;;;27.02;11.98;;;9.00;99.90;;;;;;4928985;29;20025;-89
2021/11/30 12:54:39;;;;;;;21.38;11.45;;;8.80;99.90;;;;;;4937046;29;20091;-90
2021/11/30 12:57:06;;;;;;;19.10;11.23;;;8.80;99.90;;;;;;4933921;29;20667;-90
2021/11/30 12:59:38;;;;;;;20.00;11.05;;;8.90;99.90;;;;;;4927878;29;20043;-90